Time;durP1;ratioP1;P1;durP2;ratioP2;P2;SDS_P1;SDS_P2;PMS_P1;PMS_P2;Temp;Humidity;BMP_temperature;BMP_pressure;BME280_temperature;BME280_humidity;BME280_pressure;Samples;Min_cycle;Max_cycle;Signal;HPM_P1;HPM_P2
2023/02/05 00:01:23;;;;;;;10.80;6.30;;;;;;;-128.00;-1.00;-1.00;104081;1267;1004927;-75
2023/02/05 00:03:50;;;;;;;9.60;5.60;;;;;;;-128.00;-1.00;-1.00;104060;1266;1004743;-76
2023/02/05 00:06:17;;;;;;;8.60;5.60;;;;;;;-128.00;-1.00;-1.00;104825;1267;1004270;-74
2023/02/05 00:08:43;;;;;;;8.80;6.30;;;;;;;-128.00;-1.00;-1.00;104803;1266;1004686;-75
2023/02/05 00:11:10;;;;;;;9.20;6.00;;;;;;;-128.00;-1.00;-1.00;104808;1265;1003411;-75
2023/02/05 00:13:40;;;;;;;11.10;6.30;;;;;;;-128.00;-1.00;-1.00;104834;1265;1004228;-74
2023/02/05 00:16:17;;;;;;;10.50;6.60;;;;;;;-128.00;-1.00;-1.00;104829;1267;1063171;-74
2023/02/05 00:18:44;;;;;;;10.90;7.10;;;;;;;-128.00;-1.00;-1.00;104844;1266;1055808;-74
2023/02/05 00:21:11;;;;;;;9.70;7.00;;;;;;;-128.00;-1.00;-1.00;104819;1267;1004807;-74
2023/02/05 00:23:38;;;;;;;9.30;6.10;;;;;;;-128.00;-1.00;-1.00;104842;1267;1004056;-75
2023/02/05 00:26:06;;;;;;;10.30;7.20;;;;;;;-128.00;-1.00;-1.00;104824;1267;1004279;-75
2023/02/05 00:28:34;;;;;;;9.10;6.50;;;;;;;-128.00;-1.00;-1.00;104577;1267;1004664;-75
2023/02/05 00:31:07;;;;;;;9.20;5.80;;;;;;;-128.00;-1.00;-1.00;104703;1270;1003706;-75
2023/02/05 00:33:33;;;;;;;9.00;5.90;;;;;;;-128.00;-1.00;-1.00;104074;1266;1059702;-74
2023/02/05 00:36:00;;;;;;;13.50;6.60;;;;;;;-128.00;-1.00;-1.00;104844;1266;1003441;-74
2023/02/05 00:38:27;;;;;;;13.30;6.90;;;;;;;-128.00;-1.00;-1.00;104852;1267;1004796;-75
2023/02/05 00:40:54;;;;;;;9.20;6.60;;;;;;;-128.00;-1.00;-1.00;104808;1266;1004729;-74
2023/02/05 00:43:20;;;;;;;13.10;7.70;;;;;;;-128.00;-1.00;-1.00;104868;1266;1004985;-75
2023/02/05 00:45:47;;;;;;;13.10;7.20;;;;;;;-128.00;-1.00;-1.00;104837;1266;1004036;-75
2023/02/05 00:48:13;;;;;;;12.60;7.70;;;;;;;-128.00;-1.00;-1.00;104604;1266;1003945;-75
2023/02/05 00:50:40;;;;;;;12.40;7.90;;;;;;;-128.00;-1.00;-1.00;104845;1266;1004664;-74
2023/02/05 00:53:07;;;;;;;12.30;8.10;;;;;;;-128.00;-1.00;-1.00;104593;1267;1003398;-75
2023/02/05 00:55:34;;;;;;;12.70;7.40;;;;;;;-128.00;-1.00;-1.00;104723;1267;1004129;-75
2023/02/05 00:58:01;;;;;;;14.70;8.90;;;;;;;-128.00;-1.00;-1.00;104820;1265;1004311;-75
2023/02/05 01:00:28;;;;;;;12.50;8.90;;;;;;;-128.00;-1.00;-1.00;104823;1267;1003929;-75
2023/02/05 01:02:55;;;;;;;14.60;8.00;;;;;;;-128.00;-1.00;-1.00;104873;1266;1004128;-75
2023/02/05 01:05:21;;;;;;;14.80;8.40;;;;;;;-128.00;-1.00;-1.00;104837;1266;1003766;-74
2023/02/05 01:07:48;;;;;;;17.20;9.40;;;;;;;-128.00;-1.00;-1.00;104844;1266;1003944;-75
2023/02/05 01:10:15;;;;;;;19.70;9.70;;;;;;;-128.00;-1.00;-1.00;104851;1266;1004198;-75
2023/02/05 01:12:41;;;;;;;16.30;10.10;;;;;;;-128.00;-1.00;-1.00;104842;1266;1003663;-75
2023/02/05 01:15:11;;;;;;;17.40;9.90;;;;;;;-128.00;-1.00;-1.00;104845;1266;1005618;-75
2023/02/05 01:17:38;;;;;;;13.30;9.20;;;;;;;-128.00;-1.00;-1.00;104088;1266;2002735;-75
2023/02/05 01:20:05;;;;;;;15.50;9.60;;;;;;;-128.00;-1.00;-1.00;104479;1265;1003912;-75
2023/02/05 01:22:32;;;;;;;15.40;10.60;;;;;;;-128.00;-1.00;-1.00;104575;1267;1004282;-73
2023/02/05 01:24:58;;;;;;;17.10;9.50;;;;;;;-128.00;-1.00;-1.00;104846;1266;1004220;-75
2023/02/05 01:27:25;;;;;;;21.40;12.40;;;;;;;-128.00;-1.00;-1.00;104088;1266;1003533;-74
2023/02/05 01:29:52;;;;;;;17.80;11.00;;;;;;;-128.00;-1.00;-1.00;104828;1267;1004541;-74
2023/02/05 01:32:18;;;;;;;15.10;9.70;;;;;;;-128.00;-1.00;-1.00;104472;1267;1004680;-74
2023/02/05 01:34:45;;;;;;;17.60;10.70;;;;;;;-128.00;-1.00;-1.00;104826;1266;1005105;-74
2023/02/05 01:37:12;;;;;;;18.00;11.30;;;;;;;-128.00;-1.00;-1.00;104595;1267;1003309;-74
2023/02/05 01:39:39;;;;;;;19.20;10.70;;;;;;;-128.00;-1.00;-1.00;104827;1266;1004580;-74
2023/02/05 01:42:19;;;;;;;19.10;10.40;;;;;;;-128.00;-1.00;-1.00;104091;1267;1004674;-74
2023/02/05 01:45:34;;;;;;;14.20;10.00;;;;;;;-128.00;-1.00;-1.00;104753;1267;1055743;-75
2023/02/05 01:48:02;;;;;;;14.20;9.30;;;;;;;-128.00;-1.00;-1.00;104319;1272;1060321;-74
2023/02/05 01:50:42;;;;;;;17.80;9.40;;;;;;;-128.00;-1.00;-1.00;103568;1272;1047137;-75
2023/02/05 01:53:17;;;;;;;20.90;11.40;;;;;;;-128.00;-1.00;-1.00;104306;1272;1046710;-76
2023/02/05 01:55:53;;;;;;;22.70;15.20;;;;;;;-128.00;-1.00;-1.00;104354;1272;1061714;-74
2023/02/05 01:58:22;;;;;;;23.20;15.60;;;;;;;-128.00;-1.00;-1.00;104234;1273;1055796;-76
2023/02/05 02:00:49;;;;;;;20.70;14.20;;;;;;;-128.00;-1.00;-1.00;104226;1273;1059409;-74
2023/02/05 02:03:16;;;;;;;21.40;15.80;;;;;;;-128.00;-1.00;-1.00;104221;1273;1003421;-74
2023/02/05 02:05:43;;;;;;;19.80;16.00;;;;;;;-128.00;-1.00;-1.00;104281;1273;1003670;-74
2023/02/05 02:08:13;;;;;;;25.10;15.20;;;;;;;-128.00;-1.00;-1.00;104249;1272;1004373;-74
2023/02/05 02:10:42;;;;;;;24.70;17.20;;;;;;;-128.00;-1.00;-1.00;104218;1274;1055431;-75
2023/02/05 02:13:11;;;;;;;22.30;15.30;;;;;;;-128.00;-1.00;-1.00;104214;1273;1059210;-75
2023/02/05 02:15:39;;;;;;;23.80;14.40;;;;;;;-128.00;-1.00;-1.00;104245;1273;1046031;-76
2023/02/05 02:18:25;;;;;;;23.20;14.70;;;;;;;-128.00;-1.00;-1.00;104228;1273;1004604;-75
2023/02/05 02:21:21;;;;;;;18.30;12.70;;;;;;;-128.00;-1.00;-1.00;103902;1273;1063980;-75
2023/02/05 02:24:06;;;;;;;16.40;11.10;;;;;;;-128.00;-1.00;-1.00;104268;1267;1058378;-75
2023/02/05 02:26:46;;;;;;;15.40;9.20;;;;;;;-128.00;-1.00;-1.00;104816;1267;1059963;-75
2023/02/05 02:29:21;;;;;;;15.90;9.10;;;;;;;-128.00;-1.00;-1.00;104833;1266;1046466;-76
2023/02/05 02:32:03;;;;;;;13.20;8.90;;;;;;;-128.00;-1.00;-1.00;104602;1267;1047192;-75
2023/02/05 02:34:39;;;;;;;16.90;10.30;;;;;;;-128.00;-1.00;-1.00;104831;1266;1061435;-75
2023/02/05 02:37:10;;;;;;;17.60;10.00;;;;;;;-128.00;-1.00;-1.00;104843;1267;1055631;-75
2023/02/05 02:39:48;;;;;;;14.30;9.90;;;;;;;-128.00;-1.00;-1.00;104441;1267;1059768;-75
2023/02/05 02:42:22;;;;;;;15.90;9.80;;;;;;;-128.00;-1.00;-1.00;104827;1266;1045964;-76
2023/02/05 02:44:48;;;;;;;15.70;10.60;;;;;;;-128.00;-1.00;-1.00;104834;1266;1046018;-74
2023/02/05 02:47:20;;;;;;;15.70;10.30;;;;;;;-128.00;-1.00;-1.00;104868;1267;1005000;-74
2023/02/05 02:49:55;;;;;;;13.90;9.20;;;;;;;-128.00;-1.00;-1.00;104708;1265;1055397;-75
2023/02/05 02:52:24;;;;;;;16.60;10.20;;;;;;;-128.00;-1.00;-1.00;104659;1267;1059784;-75
2023/02/05 02:54:54;;;;;;;13.60;8.80;;;;;;;-128.00;-1.00;-1.00;104725;1267;1046603;-75
2023/02/05 02:57:24;;;;;;;11.80;9.40;;;;;;;-128.00;-1.00;-1.00;104447;1267;1047448;-75
2023/02/05 02:59:53;;;;;;;12.90;8.30;;;;;;;-128.00;-1.00;-1.00;104563;1267;1063120;-75
2023/02/05 03:02:21;;;;;;;14.40;9.50;;;;;;;-128.00;-1.00;-1.00;104753;1267;1057031;-75
2023/02/05 03:04:55;;;;;;;12.00;8.30;;;;;;;-128.00;-1.00;-1.00;104853;1266;1003317;-75
2023/02/05 03:07:29;;;;;;;12.60;9.10;;;;;;;-128.00;-1.00;-1.00;104852;1266;1045892;-75
2023/02/05 03:10:11;;;;;;;11.90;8.60;;;;;;;-128.00;-1.00;-1.00;104756;1266;1046794;-74
2023/02/05 03:12:38;;;;;;;12.60;9.30;;;;;;;-128.00;-1.00;-1.00;104103;1267;1062016;-74
2023/02/05 03:15:07;;;;;;;14.00;9.10;;;;;;;-128.00;-1.00;-1.00;104857;1267;1004032;-75
2023/02/05 03:17:34;;;;;;;17.00;9.80;;;;;;;-128.00;-1.00;-1.00;103751;1268;1059215;-74
2023/02/05 03:20:14;;;;;;;14.70;9.70;;;;;;;-128.00;-1.00;-1.00;104369;1268;1004093;-74
2023/02/05 03:22:40;;;;;;;13.70;9.00;;;;;;;-128.00;-1.00;-1.00;104651;1268;1049511;-74
2023/02/05 03:25:07;;;;;;;13.90;9.50;;;;;;;-128.00;-1.00;-1.00;104684;1268;1006149;-75
2023/02/05 03:27:34;;;;;;;15.20;11.10;;;;;;;-128.00;-1.00;-1.00;104548;1268;1003704;-75
2023/02/05 03:30:03;;;;;;;15.20;11.10;;;;;;;-128.00;-1.00;-1.00;104620;1268;1004426;-74
2023/02/05 03:32:39;;;;;;;14.30;9.80;;;;;;;-128.00;-1.00;-1.00;104373;1268;1047706;-74
2023/02/05 03:35:23;;;;;;;12.80;10.20;;;;;;;-128.00;-1.00;-1.00;103890;1268;1048063;-75
2023/02/05 03:38:14;;;;;;;14.30;9.90;;;;;;;-128.00;-1.00;-1.00;104489;1268;1062003;-75
2023/02/05 03:40:59;;;;;;;14.50;10.00;;;;;;;-128.00;-1.00;-1.00;104686;1268;1055998;-74
2023/02/05 03:43:56;;;;;;;13.70;10.20;;;;;;;-128.00;-1.00;-1.00;104661;1268;1059263;-74
2023/02/05 03:46:57;;;;;;;13.70;9.80;;;;;;;-128.00;-1.00;-1.00;104644;1268;1046231;-76
2023/02/05 03:49:51;;;;;;;14.60;10.10;;;;;;;-128.00;-1.00;-1.00;104657;1268;1047022;-75
2023/02/05 03:52:24;;;;;;;15.40;10.40;;;;;;;-128.00;-1.00;-1.00;104643;1271;1062955;-75
2023/02/05 03:55:14;;;;;;;14.50;11.40;;;;;;;-128.00;-1.00;-1.00;104742;1266;1057027;-75
2023/02/05 03:57:55;;;;;;;22.30;12.00;;;;;;;-128.00;-1.00;-1.00;104843;1267;1059567;-75
2023/02/05 04:00:23;;;;;;;16.60;11.40;;;;;;;-128.00;-1.00;-1.00;104862;1266;1045780;-74
2023/02/05 04:02:50;;;;;;;17.90;12.40;;;;;;;-128.00;-1.00;-1.00;104825;1267;1047459;-75
2023/02/05 04:05:19;;;;;;;16.90;13.10;;;;;;;-128.00;-1.00;-1.00;104846;1267;1004720;-76
2023/02/05 04:07:46;;;;;;;15.40;12.40;;;;;;;-128.00;-1.00;-1.00;104869;1266;1056528;-75
2023/02/05 04:10:13;;;;;;;17.30;11.60;;;;;;;-128.00;-1.00;-1.00;104868;1266;1003782;-75
2023/02/05 04:12:39;;;;;;;16.50;11.40;;;;;;;-128.00;-1.00;-1.00;104595;1266;1003961;-77
2023/02/05 04:15:07;;;;;;;18.20;12.50;;;;;;;-128.00;-1.00;-1.00;104141;1266;1004281;-74
2023/02/05 04:17:34;;;;;;;19.10;12.60;;;;;;;-128.00;-1.00;-1.00;104845;1267;1004773;-74
2023/02/05 04:20:01;;;;;;;18.70;10.90;;;;;;;-128.00;-1.00;-1.00;104862;1267;1004503;-74
2023/02/05 04:22:28;;;;;;;19.60;12.20;;;;;;;-128.00;-1.00;-1.00;104690;1266;1003848;-74
2023/02/05 04:24:55;;;;;;;18.10;12.30;;;;;;;-128.00;-1.00;-1.00;104877;1266;1003626;-74
2023/02/05 04:27:21;;;;;;;13.80;10.20;;;;;;;-128.00;-1.00;-1.00;104894;1265;1003466;-74
2023/02/05 04:29:48;;;;;;;14.20;10.40;;;;;;;-128.00;-1.00;-1.00;104858;1266;1004206;-75
2023/02/05 04:32:15;;;;;;;16.70;10.30;;;;;;;-128.00;-1.00;-1.00;104866;1267;1004073;-75
2023/02/05 04:34:41;;;;;;;17.60;11.90;;;;;;;-128.00;-1.00;-1.00;104866;1267;1004320;-75
2023/02/05 04:37:08;;;;;;;15.80;10.50;;;;;;;-128.00;-1.00;-1.00;104867;1266;1004066;-75
2023/02/05 04:39:34;;;;;;;16.00;11.00;;;;;;;-128.00;-1.00;-1.00;104587;1268;1004106;-74
2023/02/05 04:42:01;;;;;;;14.60;10.90;;;;;;;-128.00;-1.00;-1.00;104867;1266;1004947;-74
2023/02/05 04:44:28;;;;;;;16.70;11.00;;;;;;;-128.00;-1.00;-1.00;104858;1266;1005255;-75
2023/02/05 04:46:55;;;;;;;14.40;10.80;;;;;;;-128.00;-1.00;-1.00;104650;1267;1003360;-75
2023/02/05 04:49:21;;;;;;;13.10;10.70;;;;;;;-128.00;-1.00;-1.00;104842;1266;1003866;-74
2023/02/05 04:51:48;;;;;;;16.10;11.00;;;;;;;-128.00;-1.00;-1.00;104860;1266;1004265;-75
2023/02/05 04:54:15;;;;;;;18.40;12.60;;;;;;;-128.00;-1.00;-1.00;104639;1267;1004035;-75
2023/02/05 04:56:42;;;;;;;15.20;11.20;;;;;;;-128.00;-1.00;-1.00;104876;1266;1004792;-75
2023/02/05 04:59:09;;;;;;;16.30;11.00;;;;;;;-128.00;-1.00;-1.00;104861;1266;1005576;-75
2023/02/05 05:01:35;;;;;;;16.80;11.60;;;;;;;-128.00;-1.00;-1.00;104853;1267;1005214;-75
2023/02/05 05:04:02;;;;;;;16.20;12.60;;;;;;;-128.00;-1.00;-1.00;104875;1266;1004595;-75
2023/02/05 05:06:29;;;;;;;19.30;13.20;;;;;;;-128.00;-1.00;-1.00;104699;1266;1004220;-75
2023/02/05 05:08:55;;;;;;;16.80;12.20;;;;;;;-128.00;-1.00;-1.00;104672;1267;1004131;-75
2023/02/05 05:11:22;;;;;;;19.60;11.70;;;;;;;-128.00;-1.00;-1.00;104858;1266;1004004;-75
2023/02/05 05:13:50;;;;;;;19.00;12.00;;;;;;;-128.00;-1.00;-1.00;104852;1267;1003625;-75
2023/02/05 05:16:17;;;;;;;17.90;12.40;;;;;;;-128.00;-1.00;-1.00;104887;1266;1003463;-74
2023/02/05 05:18:44;;;;;;;16.80;11.70;;;;;;;-128.00;-1.00;-1.00;104872;1267;1005251;-75
2023/02/05 05:21:11;;;;;;;19.00;12.30;;;;;;;-128.00;-1.00;-1.00;104863;1266;1004713;-74
2023/02/05 05:23:38;;;;;;;16.10;11.10;;;;;;;-128.00;-1.00;-1.00;104735;1267;1006218;-75
2023/02/05 05:26:07;;;;;;;15.10;11.20;;;;;;;-128.00;-1.00;-1.00;104866;1268;1003695;-75
2023/02/05 05:28:34;;;;;;;16.80;12.60;;;;;;;-128.00;-1.00;-1.00;103634;1267;1047354;-75
2023/02/05 05:31:16;;;;;;;23.90;15.40;;;;;;;-128.00;-1.00;-1.00;104844;1270;1005119;-75
2023/02/05 05:33:42;;;;;;;27.60;16.30;;;;;;;-128.00;-1.00;-1.00;104855;1267;1054729;-75
2023/02/05 05:36:10;;;;;;;25.50;17.50;;;;;;;-128.00;-1.00;-1.00;104879;1266;1003386;-76
2023/02/05 05:38:38;;;;;;;25.20;17.10;;;;;;;-128.00;-1.00;-1.00;104698;1267;1004679;-75
2023/02/05 05:43:52;;;;;;;42.00;24.30;;;;;;;-128.00;-1.00;-1.00;104835;1267;1062019;-75
2023/02/05 05:46:25;;;;;;;27.60;19.80;;;;;;;-128.00;-1.00;-1.00;104872;1267;1056514;-75
2023/02/05 05:48:58;;;;;;;33.90;20.90;;;;;;;-128.00;-1.00;-1.00;104868;1267;1059399;-75
2023/02/05 05:51:26;;;;;;;34.60;21.20;;;;;;;-128.00;-1.00;-1.00;104839;1266;1046405;-75
2023/02/05 05:53:54;;;;;;;25.30;16.70;;;;;;;-128.00;-1.00;-1.00;104713;1267;1047209;-75
2023/02/05 05:56:22;;;;;;;31.50;18.30;;;;;;;-128.00;-1.00;-1.00;104661;1267;1005005;-75
2023/02/05 05:58:49;;;;;;;31.50;18.70;;;;;;;-128.00;-1.00;-1.00;104870;1266;1004512;-75
2023/02/05 06:01:19;;;;;;;39.20;23.10;;;;;;;-128.00;-1.00;-1.00;104597;1266;1004612;-76
2023/02/05 06:03:46;;;;;;;37.60;22.00;;;;;;;-128.00;-1.00;-1.00;104092;1267;1047290;-74
2023/02/05 06:06:12;;;;;;;35.30;20.70;;;;;;;-128.00;-1.00;-1.00;104875;1266;1004907;-75
2023/02/05 06:08:41;;;;;;;35.70;21.40;;;;;;;-128.00;-1.00;-1.00;104880;1267;1004010;-75
2023/02/05 06:11:08;;;;;;;36.10;21.70;;;;;;;-128.00;-1.00;-1.00;104826;1267;1056995;-75
2023/02/05 06:13:35;;;;;;;37.40;23.30;;;;;;;-128.00;-1.00;-1.00;104593;1266;1003719;-76
2023/02/05 06:16:02;;;;;;;38.30;21.80;;;;;;;-128.00;-1.00;-1.00;104848;1266;1005426;-76
2023/02/05 06:18:29;;;;;;;42.30;23.10;;;;;;;-128.00;-1.00;-1.00;104888;1267;1003938;-75
2023/02/05 06:20:56;;;;;;;38.30;23.20;;;;;;;-128.00;-1.00;-1.00;104719;1267;1003507;-75
2023/02/05 06:23:23;;;;;;;41.40;24.70;;;;;;;-128.00;-1.00;-1.00;104574;1267;1003837;-75
2023/02/05 06:25:49;;;;;;;39.50;24.00;;;;;;;-128.00;-1.00;-1.00;104100;1267;1004520;-77
2023/02/05 06:28:16;;;;;;;39.00;24.50;;;;;;;-128.00;-1.00;-1.00;104872;1266;1004108;-75
2023/02/05 06:30:43;;;;;;;35.90;23.30;;;;;;;-128.00;-1.00;-1.00;104859;1267;1004753;-75
2023/02/05 06:33:11;;;;;;;37.70;24.30;;;;;;;-128.00;-1.00;-1.00;104857;1267;1003949;-75
2023/02/05 06:35:39;;;;;;;41.50;25.80;;;;;;;-128.00;-1.00;-1.00;104108;1266;1055976;-75
2023/02/05 06:38:07;;;;;;;34.70;23.30;;;;;;;-128.00;-1.00;-1.00;104876;1266;1004303;-75
2023/02/05 06:40:33;;;;;;;39.30;24.90;;;;;;;-128.00;-1.00;-1.00;104492;1267;1003670;-75
2023/02/05 06:43:00;;;;;;;42.70;26.20;;;;;;;-128.00;-1.00;-1.00;104689;1267;1005270;-74
2023/02/05 06:45:26;;;;;;;35.90;23.00;;;;;;;-128.00;-1.00;-1.00;104841;1268;1004202;-74
2023/02/05 06:47:54;;;;;;;40.70;27.70;;;;;;;-128.00;-1.00;-1.00;104830;1267;1004017;-76
2023/02/05 06:50:22;;;;;;;39.10;27.80;;;;;;;-128.00;-1.00;-1.00;104843;1267;1004510;-76
2023/02/05 06:52:50;;;;;;;38.70;25.60;;;;;;;-128.00;-1.00;-1.00;104870;1267;1004583;-76
2023/02/05 06:55:17;;;;;;;37.20;24.90;;;;;;;-128.00;-1.00;-1.00;104604;1267;1003956;-74
2023/02/05 06:57:44;;;;;;;39.90;25.40;;;;;;;-128.00;-1.00;-1.00;104842;1266;1004530;-75
2023/02/05 07:00:12;;;;;;;38.30;26.50;;;;;;;-128.00;-1.00;-1.00;104583;1267;1003835;-76
2023/02/05 07:02:39;;;;;;;40.20;26.90;;;;;;;-128.00;-1.00;-1.00;104715;1267;1004538;-76
2023/02/05 07:05:06;;;;;;;43.10;29.80;;;;;;;-128.00;-1.00;-1.00;104671;1267;1004296;-75
2023/02/05 07:07:33;;;;;;;38.60;25.50;;;;;;;-128.00;-1.00;-1.00;104755;1269;1003939;-75
2023/02/05 07:10:00;;;;;;;38.80;25.40;;;;;;;-128.00;-1.00;-1.00;104848;1266;1004120;-76
2023/02/05 07:12:26;;;;;;;40.40;27.40;;;;;;;-128.00;-1.00;-1.00;104856;1267;1004548;-76
2023/02/05 07:14:53;;;;;;;47.30;28.40;;;;;;;-128.00;-1.00;-1.00;104864;1267;1005204;-75
2023/02/05 07:17:20;;;;;;;52.90;29.30;;;;;;;-128.00;-1.00;-1.00;104848;1269;1004487;-75
2023/02/05 07:19:46;;;;;;;67.20;35.00;;;;;;;-128.00;-1.00;-1.00;104862;1266;1003360;-75
2023/02/05 07:22:13;;;;;;;56.90;31.90;;;;;;;-128.00;-1.00;-1.00;104837;1267;1004111;-75
2023/02/05 07:24:40;;;;;;;43.50;28.70;;;;;;;-128.00;-1.00;-1.00;104868;1267;1004076;-77
2023/02/05 07:27:07;;;;;;;42.80;28.50;;;;;;;-128.00;-1.00;-1.00;104841;1266;1005126;-75
2023/02/05 07:29:34;;;;;;;43.60;27.10;;;;;;;-128.00;-1.00;-1.00;104815;1267;1004486;-76
2023/02/05 07:32:00;;;;;;;45.90;28.40;;;;;;;-128.00;-1.00;-1.00;104904;1266;1003803;-75
2023/02/05 07:34:27;;;;;;;40.10;28.50;;;;;;;-128.00;-1.00;-1.00;104634;1267;1004294;-76
2023/02/05 07:36:54;;;;;;;43.80;30.80;;;;;;;-128.00;-1.00;-1.00;104862;1267;1004730;-76
2023/02/05 07:39:21;;;;;;;48.60;32.40;;;;;;;-128.00;-1.00;-1.00;104830;1267;1004145;-76
2023/02/05 07:41:47;;;;;;;47.80;32.60;;;;;;;-128.00;-1.00;-1.00;104860;1266;1003348;-76
2023/02/05 07:44:14;;;;;;;73.80;39.50;;;;;;;-128.00;-1.00;-1.00;104214;1266;1004147;-75
2023/02/05 07:46:41;;;;;;;71.90;39.00;;;;;;;-128.00;-1.00;-1.00;104827;1266;1005368;-75
2023/02/05 07:49:07;;;;;;;60.40;34.80;;;;;;;-128.00;-1.00;-1.00;104745;1267;1004254;-76
2023/02/05 07:51:34;;;;;;;37.80;23.70;;;;;;;-128.00;-1.00;-1.00;104870;1266;1003562;-76
2023/02/05 07:54:06;;;;;;;35.50;23.50;;;;;;;-128.00;-1.00;-1.00;104692;1267;1005542;-75
2023/02/05 07:56:33;;;;;;;35.80;21.00;;;;;;;-128.00;-1.00;-1.00;104855;1266;1047247;-75
2023/02/05 07:59:00;;;;;;;29.20;19.80;;;;;;;-128.00;-1.00;-1.00;104093;1266;1004149;-76
2023/02/05 08:01:27;;;;;;;36.40;20.20;;;;;;;-128.00;-1.00;-1.00;104871;1267;1004482;-76
2023/02/05 08:03:54;;;;;;;28.90;19.10;;;;;;;-128.00;-1.00;-1.00;104275;1268;1004325;-76
2023/02/05 08:06:21;;;;;;;32.80;19.30;;;;;;;-128.00;-1.00;-1.00;104537;1267;1004462;-76
2023/02/05 08:08:47;;;;;;;28.60;18.60;;;;;;;-128.00;-1.00;-1.00;104101;1267;1004855;-76
2023/02/05 08:11:15;;;;;;;27.20;16.90;;;;;;;-128.00;-1.00;-1.00;104857;1267;1004403;-75
2023/02/05 08:13:43;;;;;;;24.70;15.30;;;;;;;-128.00;-1.00;-1.00;104859;1266;1004338;-75
2023/02/05 08:16:11;;;;;;;25.20;15.70;;;;;;;-128.00;-1.00;-1.00;104825;1266;1004508;-75
2023/02/05 08:18:38;;;;;;;24.10;16.00;;;;;;;-128.00;-1.00;-1.00;104834;1266;1003894;-75
2023/02/05 08:21:04;;;;;;;27.40;18.70;;;;;;;-128.00;-1.00;-1.00;104851;1266;1003589;-75
2023/02/05 08:23:31;;;;;;;24.10;16.90;;;;;;;-128.00;-1.00;-1.00;104865;1266;1003809;-75
2023/02/05 08:25:58;;;;;;;20.30;12.80;;;;;;;-128.00;-1.00;-1.00;104861;1266;1004447;-75
2023/02/05 08:28:28;;;;;;;17.60;11.90;;;;;;;-128.00;-1.00;-1.00;104850;1267;1004168;-76
2023/02/05 08:30:55;;;;;;;16.50;11.80;;;;;;;-128.00;-1.00;-1.00;104831;1265;1047020;-75
2023/02/05 08:33:22;;;;;;;16.60;11.10;;;;;;;-128.00;-1.00;-1.00;104858;1267;1004342;-75
2023/02/05 08:35:49;;;;;;;17.40;9.70;;;;;;;-128.00;-1.00;-1.00;104778;1267;1004521;-75
2023/02/05 08:38:16;;;;;;;15.60;9.40;;;;;;;-128.00;-1.00;-1.00;104887;1266;1003584;-75
2023/02/05 08:40:43;;;;;;;12.70;8.30;;;;;;;-128.00;-1.00;-1.00;104853;1266;1005208;-76
2023/02/05 08:43:10;;;;;;;13.20;8.90;;;;;;;-128.00;-1.00;-1.00;104863;1269;1003624;-75
2023/02/05 08:45:36;;;;;;;17.10;10.00;;;;;;;-128.00;-1.00;-1.00;104892;1267;1004683;-76
2023/02/05 08:48:03;;;;;;;18.00;10.40;;;;;;;-128.00;-1.00;-1.00;104862;1267;1004381;-76
2023/02/05 08:50:30;;;;;;;19.60;10.90;;;;;;;-128.00;-1.00;-1.00;104833;1267;1003687;-76
2023/02/05 08:52:56;;;;;;;14.30;9.00;;;;;;;-128.00;-1.00;-1.00;104842;1267;1003845;-77
2023/02/05 08:55:23;;;;;;;21.30;11.30;;;;;;;-128.00;-1.00;-1.00;104845;1265;1004323;-75
2023/02/05 08:57:50;;;;;;;16.30;10.30;;;;;;;-128.00;-1.00;-1.00;104847;1267;1003454;-75
2023/02/05 09:00:18;;;;;;;17.60;9.20;;;;;;;-128.00;-1.00;-1.00;104638;1266;1004254;-76
2023/02/05 09:02:45;;;;;;;14.60;9.70;;;;;;;-128.00;-1.00;-1.00;104851;1266;1003396;-76
2023/02/05 09:05:12;;;;;;;16.30;9.70;;;;;;;-128.00;-1.00;-1.00;104661;1270;1004591;-76
2023/02/05 09:07:39;;;;;;;16.90;10.20;;;;;;;-128.00;-1.00;-1.00;104626;1267;1005127;-76
2023/02/05 09:10:09;;;;;;;13.80;8.70;;;;;;;-128.00;-1.00;-1.00;104889;1265;1004021;-75
2023/02/05 09:12:35;;;;;;;14.80;9.50;;;;;;;-128.00;-1.00;-1.00;104857;1267;1062036;-76
2023/02/05 09:15:03;;;;;;;13.90;9.30;;;;;;;-128.00;-1.00;-1.00;104853;1265;1004512;-75
2023/02/05 09:17:30;;;;;;;10.90;6.70;;;;;;;-128.00;-1.00;-1.00;104833;1267;1003505;-76
2023/02/05 09:19:56;;;;;;;11.40;8.10;;;;;;;-128.00;-1.00;-1.00;104762;1266;1004480;-76
2023/02/05 09:22:23;;;;;;;11.30;7.30;;;;;;;-128.00;-1.00;-1.00;104872;1265;1004092;-74
2023/02/05 09:24:50;;;;;;;11.20;7.50;;;;;;;-128.00;-1.00;-1.00;104848;1266;1004094;-75
2023/02/05 09:27:16;;;;;;;12.20;7.40;;;;;;;-128.00;-1.00;-1.00;104833;1267;1004210;-75
2023/02/05 09:29:43;;;;;;;14.00;7.90;;;;;;;-128.00;-1.00;-1.00;104839;1266;1004347;-75
2023/02/05 09:32:10;;;;;;;13.50;9.20;;;;;;;-128.00;-1.00;-1.00;104842;1267;1004225;-75
2023/02/05 09:34:36;;;;;;;14.30;9.30;;;;;;;-128.00;-1.00;-1.00;104624;1267;1004481;-75
2023/02/05 09:37:03;;;;;;;16.70;9.60;;;;;;;-128.00;-1.00;-1.00;104864;1266;1004627;-75
2023/02/05 09:39:30;;;;;;;18.40;9.30;;;;;;;-128.00;-1.00;-1.00;104836;1266;1004662;-75
2023/02/05 09:42:19;;;;;;;11.50;7.10;;;;;;;-128.00;-1.00;-1.00;104861;1267;1004654;-75
2023/02/05 09:45:24;;;;;;;9.60;5.20;;;;;;;-128.00;-1.00;-1.00;104866;1266;1046168;-74
2023/02/05 09:47:59;;;;;;;8.90;6.20;;;;;;;-128.00;-1.00;-1.00;104838;1265;1048737;-75
2023/02/05 09:50:28;;;;;;;9.40;6.60;;;;;;;-128.00;-1.00;-1.00;104820;1267;1063388;-76
2023/02/05 09:53:12;;;;;;;10.80;7.20;;;;;;;-128.00;-1.00;-1.00;104862;1266;1055066;-75
2023/02/05 09:55:43;;;;;;;10.80;6.10;;;;;;;-128.00;-1.00;-1.00;104848;1266;1059200;-77
2023/02/05 09:58:18;;;;;;;9.80;6.40;;;;;;;-128.00;-1.00;-1.00;104630;1267;1046197;-76
2023/02/05 10:00:48;;;;;;;8.80;5.90;;;;;;;-128.00;-1.00;-1.00;104858;1267;1046537;-75
2023/02/05 10:03:18;;;;;;;6.50;4.00;;;;;;;-128.00;-1.00;-1.00;104844;1267;1062781;-76
2023/02/05 10:06:12;;;;;;;7.50;5.10;;;;;;;-128.00;-1.00;-1.00;104832;1267;1055991;-75
2023/02/05 10:08:57;;;;;;;8.70;5.40;;;;;;;-128.00;-1.00;-1.00;104816;1267;1059507;-76
2023/02/05 10:12:02;;;;;;;11.30;7.30;;;;;;;-128.00;-1.00;-1.00;104820;1266;1045851;-75
2023/02/05 10:14:50;;;;;;;13.20;8.30;;;;;;;-128.00;-1.00;-1.00;103893;1275;1046703;-75
2023/02/05 10:17:45;;;;;;;17.40;8.50;;;;;;;-128.00;-1.00;-1.00;104079;1274;1061052;-76
2023/02/05 10:20:27;;;;;;;10.20;7.60;;;;;;;-128.00;-1.00;-1.00;103822;1276;1057580;-76
2023/02/05 10:23:31;;;;;;;11.50;7.40;;;;;;;-128.00;-1.00;-1.00;104027;1275;1060409;-75
2023/02/05 10:26:01;;;;;;;10.50;6.90;;;;;;;-128.00;-1.00;-1.00;102859;1279;1046376;-75
2023/02/05 10:28:36;;;;;;;10.30;6.80;;;;;;;-128.00;-1.00;-1.00;103553;1279;1048936;-75
2023/02/05 10:31:16;;;;;;;13.80;8.60;;;;;;;-128.00;-1.00;-1.00;103583;1279;1062589;-74
2023/02/05 10:33:54;;;;;;;12.30;7.20;;;;;;;-128.00;-1.00;-1.00;103568;1280;1056923;-76
2023/02/05 10:36:24;;;;;;;12.40;8.00;;;;;;;-128.00;-1.00;-1.00;103348;1280;1059766;-75
2023/02/05 10:38:54;;;;;;;11.20;8.00;;;;;;;-128.00;-1.00;-1.00;103539;1279;1046209;-75
2023/02/05 10:41:26;;;;;;;14.20;8.90;;;;;;;-128.00;-1.00;-1.00;103588;1279;1046173;-75
2023/02/05 10:44:10;;;;;;;14.60;8.40;;;;;;;-128.00;-1.00;-1.00;103581;1280;1062551;-75
2023/02/05 10:46:38;;;;;;;17.90;10.00;;;;;;;-128.00;-1.00;-1.00;103464;1279;1055104;-75
2023/02/05 10:49:17;;;;;;;25.90;11.60;;;;;;;-128.00;-1.00;-1.00;102782;1279;1058369;-76
2023/02/05 10:51:45;;;;;;;12.90;8.40;;;;;;;-128.00;-1.00;-1.00;103990;1273;1046493;-75
2023/02/05 10:54:19;;;;;;;16.60;10.00;;;;;;;-128.00;-1.00;-1.00;104216;1273;1004667;-77
2023/02/05 10:56:47;;;;;;;13.30;8.40;;;;;;;-128.00;-1.00;-1.00;104071;1273;1061170;-76
2023/02/05 10:59:35;;;;;;;13.90;8.40;;;;;;;-128.00;-1.00;-1.00;104038;1273;1004218;-76
2023/02/05 11:02:08;;;;;;;11.40;8.10;;;;;;;-128.00;-1.00;-1.00;104216;1267;1060150;-75
2023/02/05 11:04:45;;;;;;;11.80;8.50;;;;;;;-128.00;-1.00;-1.00;104647;1267;1045319;-76
2023/02/05 11:07:22;;;;;;;12.70;8.10;;;;;;;-128.00;-1.00;-1.00;104801;1265;1047094;-76
2023/02/05 11:09:48;;;;;;;11.50;7.80;;;;;;;-128.00;-1.00;-1.00;104858;1266;1062565;-75
2023/02/05 11:12:19;;;;;;;12.60;8.20;;;;;;;-128.00;-1.00;-1.00;104820;1267;1004515;-75
2023/02/05 11:14:57;;;;;;;10.80;7.70;;;;;;;-128.00;-1.00;-1.00;104834;1267;1058675;-75
2023/02/05 11:17:35;;;;;;;12.50;8.50;;;;;;;-128.00;-1.00;-1.00;104635;1267;1047541;-75
2023/02/05 11:20:17;;;;;;;9.90;7.10;;;;;;;-128.00;-1.00;-1.00;104832;1266;1047548;-75
2023/02/05 11:22:47;;;;;;;9.00;6.10;;;;;;;-128.00;-1.00;-1.00;104803;1266;1062568;-76